createdAt,value
2019-05-16T00:00:03.061Z,6.2
2019-05-16T00:15:02.949Z,6.2
2019-05-16T00:30:02.497Z,6.1
2019-05-16T00:45:03.383Z,6.1
2019-05-16T01:00:02.757Z,6.1
2019-05-16T01:15:02.846Z,6
2019-05-16T01:30:03.393Z,5.9
2019-05-16T01:45:02.755Z,5.9
2019-05-16T02:00:02.883Z,5.7
2019-05-16T02:15:02.974Z,5.8
2019-05-16T02:30:02.587Z,5.8
2019-05-16T02:45:03.148Z,5.7
2019-05-16T03:00:02.599Z,5.8
2019-05-16T03:15:03.169Z,5.7
2019-05-16T03:30:02.779Z,5.8
2019-05-16T03:45:03.175Z,5.6
2019-05-16T04:00:03.179Z,5.7
2019-05-16T04:15:02.902Z,5.8
2019-05-16T04:30:02.476Z,5.8
2019-05-16T04:45:02.832Z,5.9
2019-05-16T05:00:03.164Z,6.1
2019-05-16T05:15:02.672Z,6.2
2019-05-16T05:30:03.185Z,6.3
2019-05-16T05:45:02.972Z,6.4
2019-05-16T06:00:02.561Z,6.5
2019-05-16T06:15:07.306Z,6.6
2019-05-16T06:30:02.589Z,6.8
2019-05-16T06:45:03.064Z,6.9
2019-05-16T07:00:02.553Z,7.2
2019-05-16T07:15:02.873Z,7.3
2019-05-16T07:30:03.148Z,7.9
2019-05-16T07:45:02.669Z,8.7
2019-05-16T08:00:03.223Z,7.9
2019-05-16T08:15:03.140Z,7.7
2019-05-16T08:30:02.805Z,7.8
2019-05-16T08:45:03.235Z,8.1
2019-05-16T09:00:02.735Z,9.1
2019-05-16T09:15:03.210Z,8.9
2019-05-16T09:30:03.466Z,9
2019-05-16T09:45:02.881Z,9.2
2019-05-16T10:00:03.221Z,9.5
2019-05-16T10:15:02.652Z,9.4
2019-05-16T10:30:03.207Z,10.2
2019-05-16T10:45:03.175Z,11.1
2019-05-16T11:00:10.280Z,10.9
2019-05-16T11:15:02.658Z,10.2
2019-05-16T11:30:02.593Z,10.3
2019-05-16T11:45:03.163Z,10.9
2019-05-16T12:00:03.316Z,10.3
2019-05-16T12:15:02.617Z,10.8
2019-05-16T12:30:02.651Z,10.4
2019-05-16T12:45:02.902Z,10.3
2019-05-16T13:00:02.741Z,10.5
2019-05-16T13:15:02.859Z,10.4
2019-05-16T13:30:02.817Z,11
2019-05-16T13:45:02.896Z,11.6
2019-05-16T14:00:02.658Z,11.5
2019-05-16T14:15:03.985Z,11.6
2019-05-16T14:30:02.856Z,12.8
2019-05-16T14:45:10.688Z,12.4
2019-05-16T15:00:02.822Z,11.8
2019-05-16T15:15:16.875Z,11.1
2019-05-16T15:30:02.958Z,10.8
2019-05-16T15:45:02.597Z,10.5
2019-05-16T16:00:02.694Z,10.9
2019-05-16T16:15:02.989Z,10.7
2019-05-16T16:30:03.265Z,10.7
2019-05-16T16:45:02.697Z,10.4
2019-05-16T17:00:02.915Z,10.3
2019-05-16T17:15:03.212Z,10.3
2019-05-16T17:30:03.345Z,10.1
2019-05-16T17:45:02.896Z,10
2019-05-16T18:00:02.883Z,9.8
2019-05-16T18:15:02.746Z,9.6
2019-05-16T18:30:03.494Z,9.4
2019-05-16T18:45:02.492Z,9.3
2019-05-16T19:00:02.903Z,9.2
2019-05-16T19:15:02.771Z,9.1
2019-05-16T19:30:02.895Z,9
2019-05-16T19:45:03.452Z,9
2019-05-16T20:00:02.972Z,9
2019-05-16T20:15:07.823Z,9
2019-05-16T20:30:02.511Z,8.8
2019-05-16T20:45:02.394Z,8.9
2019-05-16T21:00:02.568Z,8.8
2019-05-16T21:15:03.381Z,8.6
2019-05-16T21:30:02.978Z,8.6
2019-05-16T21:45:02.963Z,8.8
2019-05-16T22:00:03.221Z,8.7
2019-05-16T22:15:02.786Z,8.6
2019-05-16T22:30:02.518Z,8.6
2019-05-16T22:45:02.756Z,8.6
2019-05-16T23:00:02.602Z,8.6
2019-05-16T23:15:03.308Z,8.6
2019-05-16T23:30:02.853Z,8.4
2019-05-16T23:45:03.076Z,8.4
